Time;durP1;ratioP1;P1;durP2;ratioP2;P2;SDS_P1;SDS_P2;PMS_P1;PMS_P2;Temp;Humidity;BMP_temperature;BMP_pressure;BME280_temperature;BME280_humidity;BME280_pressure;Samples;Min_cycle;Max_cycle;Signal;HPM_P1;HPM_P2
2021/03/31 00:00:29;;;;;;;7.57;4.70;;;9.70;89.90;;;;;;487348;244;27992;-74
2021/03/31 00:02:30;;;;;;;7.10;4.43;;;9.70;90.00;;;;;;487321;244;27947;-73
2021/03/31 00:04:31;;;;;;;5.93;4.63;;;9.70;90.10;;;;;;487156;244;27859;-73
2021/03/31 00:06:32;;;;;;;8.27;4.73;;;9.80;89.30;;;;;;487281;244;27977;-74
2021/03/31 00:08:34;;;;;;;10.10;5.33;;;9.80;89.80;;;;;;487341;244;28105;-73
2021/03/31 00:10:35;;;;;;;8.23;5.10;;;9.80;90.00;;;;;;487338;244;28036;-74
2021/03/31 00:12:36;;;;;;;7.03;4.33;;;9.80;90.70;;;;;;487337;244;28064;-74
2021/03/31 00:14:37;;;;;;;6.33;4.60;;;9.70;90.80;;;;;;487332;244;28120;-73
2021/03/31 00:16:39;;;;;;;9.97;4.93;;;9.60;91.10;;;;;;487339;243;27760;-74
2021/03/31 00:18:40;;;;;;;9.17;4.50;;;9.50;91.40;;;;;;487374;244;27756;-73
2021/03/31 00:20:41;;;;;;;6.27;4.10;;;9.50;91.20;;;;;;487351;244;28735;-73
2021/03/31 00:22:42;;;;;;;8.13;4.30;;;9.40;90.80;;;;;;487350;244;27992;-73
2021/03/31 00:24:44;;;;;;;6.90;4.37;;;9.40;91.10;;;;;;487354;244;28645;-73
2021/03/31 00:26:45;;;;;;;5.63;4.57;;;9.40;91.50;;;;;;487503;244;28481;-73
2021/03/31 00:28:46;;;;;;;10.50;4.50;;;9.40;91.30;;;;;;487454;244;27674;-73
2021/03/31 00:30:47;;;;;;;6.40;4.50;;;9.40;91.80;;;;;;487479;244;28047;-74
2021/03/31 00:32:49;;;;;;;6.43;4.77;;;9.40;91.50;;;;;;487459;244;27515;-73
2021/03/31 00:34:50;;;;;;;6.73;5.20;;;9.40;91.60;;;;;;487367;244;28476;-73
2021/03/31 00:36:51;;;;;;;6.53;4.30;;;9.40;92.20;;;;;;487314;244;27996;-73
2021/03/31 00:38:52;;;;;;;5.77;4.33;;;9.40;92.40;;;;;;487324;242;28071;-73
2021/03/31 00:40:54;;;;;;;7.97;4.10;;;9.40;92.50;;;;;;487335;244;27999;-73
2021/03/31 00:42:55;;;;;;;6.63;4.43;;;9.30;91.80;;;;;;487395;244;27981;-73
2021/03/31 00:44:56;;;;;;;7.60;4.40;;;9.30;93.20;;;;;;487354;244;27964;-73
2021/03/31 00:46:57;;;;;;;7.57;4.30;;;9.20;93.60;;;;;;487365;244;28054;-73
2021/03/31 00:48:59;;;;;;;10.00;4.83;;;9.10;93.10;;;;;;487343;244;28014;-74
2021/03/31 00:51:00;;;;;;;10.83;4.80;;;9.00;93.10;;;;;;487333;244;27543;-73
2021/03/31 00:53:01;;;;;;;8.00;4.50;;;9.00;93.20;;;;;;487351;244;28065;-73
2021/03/31 00:55:02;;;;;;;9.63;4.47;;;8.90;93.80;;;;;;487466;244;28438;-73
2021/03/31 00:57:04;;;;;;;4.90;3.70;;;8.90;94.50;;;;;;487531;244;28436;-74
2021/03/31 00:59:05;;;;;;;6.47;4.37;;;8.90;93.60;;;;;;487533;244;28042;-73
2021/03/31 01:01:06;;;;;;;5.20;4.50;;;8.90;94.10;;;;;;487457;244;28465;-73
2021/03/31 01:03:07;;;;;;;9.60;3.90;;;9.00;94.30;;;;;;486814;244;28296;-73
2021/03/31 01:05:09;;;;;;;6.30;4.10;;;9.00;94.20;;;;;;486924;242;28398;-73
2021/03/31 01:07:10;;;;;;;8.53;4.63;;;9.00;94.00;;;;;;487415;244;27982;-73
2021/03/31 01:09:11;;;;;;;9.13;4.40;;;9.00;94.30;;;;;;487498;243;27492;-73
2021/03/31 01:11:12;;;;;;;7.00;4.33;;;8.90;93.80;;;;;;487423;244;27611;-73
2021/03/31 01:13:16;;;;;;;10.90;5.63;;;9.00;94.20;;;;;;487392;244;28063;-73
2021/03/31 01:15:15;;;;;;;13.30;5.30;;;9.00;93.80;;;;;;487148;243;27914;-73
2021/03/31 01:17:16;;;;;;;8.10;5.07;;;9.10;94.20;;;;;;487353;244;27992;-73
2021/03/31 01:19:17;;;;;;;7.60;4.80;;;9.10;93.90;;;;;;487313;244;27862;-73
2021/03/31 01:21:19;;;;;;;10.70;4.93;;;9.20;93.70;;;;;;487280;244;28003;-74
2021/03/31 01:23:20;;;;;;;10.20;5.50;;;9.20;94.20;;;;;;487333;244;27990;-73
2021/03/31 01:25:21;;;;;;;8.87;5.00;;;9.20;94.20;;;;;;486892;244;27736;-73
2021/03/31 01:27:22;;;;;;;11.10;4.90;;;9.20;94.20;;;;;;487317;243;28052;-74
2021/03/31 01:29:24;;;;;;;8.53;5.00;;;9.10;94.20;;;;;;487359;244;28438;-73
2021/03/31 01:31:25;;;;;;;11.13;5.30;;;9.10;94.40;;;;;;487312;243;28335;-73
2021/03/31 01:33:26;;;;;;;6.27;4.70;;;9.10;94.10;;;;;;487344;244;27949;-74
2021/03/31 01:35:27;;;;;;;8.53;4.77;;;9.10;93.80;;;;;;487334;244;28593;-73
2021/03/31 01:37:29;;;;;;;5.30;4.50;;;9.10;95.00;;;;;;487364;244;27633;-74
2021/03/31 01:39:30;;;;;;;7.30;4.40;;;9.10;94.60;;;;;;487352;244;28324;-74
2021/03/31 01:41:31;;;;;;;10.47;4.93;;;9.10;95.00;;;;;;487319;244;28113;-73
2021/03/31 01:43:32;;;;;;;7.90;4.40;;;9.00;95.50;;;;;;487317;244;28115;-73
2021/03/31 01:45:34;;;;;;;8.90;4.63;;;9.00;95.50;;;;;;487339;244;28067;-73
2021/03/31 01:47:35;;;;;;;8.93;4.47;;;9.00;95.10;;;;;;487341;244;27873;-74
2021/03/31 01:49:36;;;;;;;6.20;4.60;;;8.90;96.20;;;;;;487397;244;27838;-73
2021/03/31 01:51:37;;;;;;;6.47;4.80;;;8.90;96.60;;;;;;487355;244;28005;-74
2021/03/31 01:53:39;;;;;;;6.70;4.47;;;8.80;96.80;;;;;;487478;244;27957;-73
2021/03/31 01:55:40;;;;;;;5.83;3.83;;;8.70;96.80;;;;;;487463;244;27647;-74
2021/03/31 01:57:41;;;;;;;5.40;4.23;;;8.60;97.20;;;;;;487432;244;27985;-73
2021/03/31 01:59:42;;;;;;;4.87;4.40;;;8.60;97.40;;;;;;486694;244;28015;-73
2021/03/31 02:01:44;;;;;;;9.53;4.10;;;8.60;96.80;;;;;;487298;244;28458;-73
2021/03/31 02:03:45;;;;;;;9.30;3.97;;;8.60;96.70;;;;;;487330;244;28086;-73
2021/03/31 02:05:46;;;;;;;9.20;4.30;;;8.50;97.30;;;;;;487347;244;28475;-73
2021/03/31 02:07:47;;;;;;;6.60;3.83;;;8.50;97.90;;;;;;487399;242;28501;-73
2021/03/31 02:09:49;;;;;;;6.60;3.90;;;8.50;97.70;;;;;;487492;244;28464;-73
2021/03/31 02:11:50;;;;;;;8.30;3.90;;;8.50;97.60;;;;;;487522;244;28523;-73
2021/03/31 02:13:51;;;;;;;3.70;3.30;;;8.40;97.40;;;;;;487495;244;28368;-73
2021/03/31 02:15:52;;;;;;;5.33;3.70;;;8.50;97.90;;;;;;487507;244;28204;-73
2021/03/31 02:17:54;;;;;;;4.67;3.97;;;8.40;98.20;;;;;;487458;244;27786;-73
2021/03/31 02:19:55;;;;;;;5.13;3.50;;;8.40;98.50;;;;;;487408;244;27615;-74
2021/03/31 02:21:56;;;;;;;5.17;4.00;;;8.40;98.60;;;;;;487396;244;28103;-73
2021/03/31 02:23:57;;;;;;;8.33;3.80;;;8.30;98.70;;;;;;486644;244;28067;-73
2021/03/31 02:25:59;;;;;;;6.40;4.00;;;8.30;99.60;;;;;;487323;244;28012;-74
2021/03/31 02:28:00;;;;;;;7.00;3.80;;;8.30;99.70;;;;;;487290;243;27962;-73
2021/03/31 02:30:01;;;;;;;4.90;3.70;;;8.20;99.70;;;;;;487274;244;28258;-74
2021/03/31 02:32:02;;;;;;;7.73;3.90;;;8.20;99.70;;;;;;487262;244;27998;-73
2021/03/31 02:34:04;;;;;;;6.20;4.00;;;8.20;99.90;;;;;;487269;244;27874;-73
2021/03/31 02:36:05;;;;;;;4.00;3.60;;;8.20;99.70;;;;;;487290;244;28509;-74
2021/03/31 02:38:06;;;;;;;5.63;3.57;;;8.20;99.90;;;;;;487303;244;28037;-73
2021/03/31 02:40:07;;;;;;;7.43;4.30;;;8.20;99.90;;;;;;487338;244;27930;-74
2021/03/31 02:42:09;;;;;;;7.13;4.37;;;8.20;99.90;;;;;;487389;244;28543;-73
2021/03/31 02:44:10;;;;;;;5.30;4.40;;;8.10;99.90;;;;;;487385;244;27827;-73
2021/03/31 02:46:11;;;;;;;6.27;3.80;;;8.20;99.90;;;;;;487593;244;28685;-73
2021/03/31 02:48:12;;;;;;;6.47;4.37;;;8.20;99.90;;;;;;487675;244;28184;-73
2021/03/31 02:50:14;;;;;;;10.30;4.07;;;8.10;99.90;;;;;;487661;244;28400;-73
2021/03/31 02:52:15;;;;;;;6.33;4.00;;;8.10;99.90;;;;;;487655;244;27714;-73
2021/03/31 02:54:16;;;;;;;5.10;3.43;;;8.00;99.90;;;;;;487663;244;27571;-73
2021/03/31 02:56:17;;;;;;;4.40;3.30;;;8.00;99.90;;;;;;487652;244;27957;-73
2021/03/31 02:58:19;;;;;;;9.20;3.63;;;7.90;99.90;;;;;;487651;244;27943;-73
2021/03/31 03:00:20;;;;;;;5.20;3.87;;;7.90;99.90;;;;;;487655;244;27943;-73
2021/03/31 03:02:21;;;;;;;8.40;3.83;;;7.90;99.90;;;;;;487402;244;28137;-73
2021/03/31 03:04:22;;;;;;;6.80;3.97;;;7.90;99.90;;;;;;487326;244;27751;-73
2021/03/31 03:06:24;;;;;;;4.63;3.53;;;7.90;99.90;;;;;;487389;244;27922;-73
2021/03/31 03:08:25;;;;;;;4.97;3.80;;;7.90;99.90;;;;;;487338;244;27974;-73
2021/03/31 03:10:26;;;;;;;6.37;3.93;;;8.00;99.90;;;;;;487338;244;28213;-74
2021/03/31 03:12:27;;;;;;;4.53;3.67;;;8.00;99.90;;;;;;487329;244;27875;-73
2021/03/31 03:14:29;;;;;;;8.27;4.17;;;7.90;99.90;;;;;;487299;244;28048;-70
2021/03/31 03:16:30;;;;;;;7.20;3.80;;;7.90;99.90;;;;;;487330;244;27967;-70
2021/03/31 03:18:31;;;;;;;5.07;3.70;;;8.00;99.90;;;;;;487359;244;28026;-71
2021/03/31 03:20:32;;;;;;;6.93;3.90;;;8.00;99.90;;;;;;487314;244;28303;-71
2021/03/31 03:22:34;;;;;;;6.00;3.93;;;8.00;99.90;;;;;;487361;244;28506;-71
2021/03/31 03:24:35;;;;;;;5.77;3.47;;;8.00;99.90;;;;;;487441;244;28088;-71
2021/03/31 03:26:36;;;;;;;6.20;3.90;;;8.00;99.90;;;;;;487500;244;27925;-73
2021/03/31 03:28:37;;;;;;;5.83;4.40;;;8.00;99.90;;;;;;487521;244;28187;-73
2021/03/31 03:30:39;;;;;;;8.90;4.40;;;8.00;99.90;;;;;;487509;244;28502;-73
2021/03/31 03:32:40;;;;;;;8.10;5.03;;;8.00;99.90;;;;;;487405;244;28073;-73
2021/03/31 03:34:41;;;;;;;6.90;4.60;;;7.90;99.90;;;;;;487399;243;27505;-73
2021/03/31 03:36:42;;;;;;;5.60;4.20;;;7.90;99.90;;;;;;487403;244;28551;-73
2021/03/31 03:38:44;;;;;;;7.17;4.27;;;7.90;99.90;;;;;;487514;244;28018;-71
2021/03/31 03:40:45;;;;;;;8.03;4.40;;;7.80;99.90;;;;;;487523;244;27749;-71
2021/03/31 03:42:46;;;;;;;6.90;4.20;;;7.80;99.90;;;;;;487551;244;27840;-71
2021/03/31 03:44:47;;;;;;;5.10;4.40;;;7.80;99.90;;;;;;487525;244;27738;-71
2021/03/31 03:46:49;;;;;;;7.70;3.67;;;7.80;99.90;;;;;;487465;244;27920;-71
2021/03/31 03:48:50;;;;;;;8.37;4.00;;;7.70;99.90;;;;;;487383;244;27861;-70
2021/03/31 03:50:51;;;;;;;6.73;4.00;;;7.70;99.90;;;;;;487345;244;28470;-72
2021/03/31 03:52:52;;;;;;;7.17;4.00;;;7.70;99.90;;;;;;487353;244;27920;-70
2021/03/31 03:54:54;;;;;;;4.17;3.43;;;7.60;99.90;;;;;;487373;244;27965;-71
2021/03/31 03:56:55;;;;;;;6.50;4.20;;;7.70;99.90;;;;;;487360;244;28347;-71
2021/03/31 03:58:56;;;;;;;11.10;4.00;;;7.60;99.90;;;;;;487354;244;28272;-73
2021/03/31 04:00:57;;;;;;;6.13;3.70;;;7.50;99.90;;;;;;487362;244;28422;-73
2021/03/31 04:02:59;;;;;;;10.03;3.50;;;7.50;99.90;;;;;;486596;244;28289;-73
2021/03/31 04:05:00;;;;;;;6.87;3.87;;;7.40;99.90;;;;;;487336;244;28095;-73
2021/03/31 04:07:01;;;;;;;9.00;3.77;;;7.50;99.90;;;;;;487398;244;27946;-72
2021/03/31 04:09:02;;;;;;;5.20;3.40;;;7.40;99.90;;;;;;487348;244;27622;-74
2021/03/31 04:11:04;;;;;;;8.40;4.00;;;7.50;99.90;;;;;;487356;244;27850;-73
2021/03/31 04:13:05;;;;;;;7.37;3.90;;;7.40;99.90;;;;;;487331;244;27727;-73
2021/03/31 04:15:06;;;;;;;5.00;3.70;;;7.40;99.90;;;;;;487396;244;28108;-73
2021/03/31 04:17:07;;;;;;;6.00;3.80;;;7.40;99.90;;;;;;487356;244;28100;-73
2021/03/31 04:19:09;;;;;;;7.53;4.40;;;7.40;99.90;;;;;;487468;244;28354;-73
2021/03/31 04:21:10;;;;;;;7.20;4.00;;;7.40;99.90;;;;;;487438;244;28173;-73
2021/03/31 04:23:11;;;;;;;4.53;3.83;;;7.40;99.90;;;;;;486965;244;27809;-73
2021/03/31 04:25:12;;;;;;;14.60;4.90;;;7.40;99.90;;;;;;486623;244;28290;-73
2021/03/31 04:27:14;;;;;;;7.00;3.87;;;7.40;99.90;;;;;;486603;244;27991;-73
2021/03/31 04:29:15;;;;;;;5.30;3.80;;;7.40;99.90;;;;;;486915;244;28029;-70
2021/03/31 04:31:16;;;;;;;7.60;3.93;;;7.40;99.90;;;;;;487352;244;28005;-70
2021/03/31 04:33:17;;;;;;;5.67;3.50;;;7.40;99.90;;;;;;487363;244;28550;-70
2021/03/31 04:35:19;;;;;;;11.40;3.90;;;7.40;99.90;;;;;;487384;244;27945;-71
2021/03/31 04:37:20;;;;;;;5.27;3.50;;;7.40;99.90;;;;;;487357;244;28116;-73
2021/03/31 04:39:21;;;;;;;7.40;3.70;;;7.40;99.90;;;;;;487419;244;28621;-73
2021/03/31 04:41:22;;;;;;;7.70;3.70;;;7.40;99.90;;;;;;487476;244;28838;-73
2021/03/31 04:43:24;;;;;;;7.00;4.00;;;7.40;99.90;;;;;;487488;244;27742;-73
2021/03/31 04:45:25;;;;;;;7.17;4.50;;;7.40;99.90;;;;;;487516;244;27699;-73
2021/03/31 04:47:26;;;;;;;7.23;4.40;;;7.40;99.90;;;;;;487523;244;28001;-70
2021/03/31 04:49:27;;;;;;;8.40;4.00;;;7.40;99.90;;;;;;487522;244;28042;-74
2021/03/31 04:51:29;;;;;;;5.87;4.30;;;7.30;99.90;;;;;;487496;244;27929;-71
2021/03/31 04:53:30;;;;;;;10.00;5.27;;;7.30;99.90;;;;;;487509;244;28123;-74
2021/03/31 04:55:31;;;;;;;9.70;4.90;;;7.30;99.90;;;;;;487486;244;28150;-73
2021/03/31 04:57:32;;;;;;;7.53;4.90;;;7.30;99.90;;;;;;487455;244;27907;-73
2021/03/31 04:59:34;;;;;;;8.03;4.20;;;7.30;99.90;;;;;;487504;244;27532;-73
2021/03/31 05:01:35;;;;;;;5.40;3.77;;;7.40;99.90;;;;;;487397;244;28197;-73
2021/03/31 05:03:36;;;;;;;5.53;4.10;;;7.30;99.90;;;;;;487378;244;27994;-73
2021/03/31 05:05:37;;;;;;;8.30;4.23;;;7.30;99.90;;;;;;487197;244;28273;-71
2021/03/31 05:07:39;;;;;;;8.90;4.40;;;7.30;99.90;;;;;;487377;244;28536;-73
2021/03/31 05:09:40;;;;;;;7.40;3.83;;;7.30;99.90;;;;;;487256;243;28469;-71
2021/03/31 05:11:41;;;;;;;5.60;4.40;;;7.20;99.90;;;;;;487363;244;28096;-71
2021/03/31 05:13:42;;;;;;;9.03;5.10;;;7.20;99.90;;;;;;487389;243;28353;-72
2021/03/31 05:15:44;;;;;;;9.67;3.97;;;7.10;99.90;;;;;;487373;244;28549;-72
2021/03/31 05:17:45;;;;;;;6.67;3.93;;;7.00;99.90;;;;;;487330;244;28480;-71
2021/03/31 05:19:46;;;;;;;5.70;4.63;;;7.00;99.90;;;;;;487348;244;27971;-71
2021/03/31 05:21:47;;;;;;;7.27;4.83;;;7.00;99.90;;;;;;487344;244;28471;-71
2021/03/31 05:23:49;;;;;;;6.90;4.33;;;7.00;99.90;;;;;;487355;244;27602;-71
2021/03/31 05:25:50;;;;;;;9.00;4.57;;;7.00;99.90;;;;;;487349;244;27984;-73
2021/03/31 05:27:52;;;;;;;6.57;4.30;;;7.10;99.90;;;;;;487329;244;27881;-74
2021/03/31 05:29:52;;;;;;;10.43;4.70;;;7.20;99.90;;;;;;487325;244;28698;-73
2021/03/31 05:31:54;;;;;;;6.03;4.67;;;7.20;99.90;;;;;;487334;244;27645;-70
2021/03/31 05:33:55;;;;;;;8.80;4.30;;;7.20;99.90;;;;;;487342;244;27895;-71
2021/03/31 05:35:56;;;;;;;7.30;4.70;;;7.30;99.90;;;;;;487344;244;27962;-73
2021/03/31 05:37:57;;;;;;;7.50;4.60;;;7.30;99.90;;;;;;487373;244;27924;-73
2021/03/31 05:39:59;;;;;;;9.53;4.97;;;7.40;99.90;;;;;;487445;244;27624;-73
2021/03/31 05:42:00;;;;;;;5.77;5.00;;;7.30;99.90;;;;;;487365;244;27864;-73
2021/03/31 05:44:01;;;;;;;8.20;4.67;;;7.30;99.90;;;;;;493179;241;28131;-73
2021/03/31 05:46:02;;;;;;;7.67;4.90;;;7.10;99.90;;;;;;493901;241;27905;-73
2021/03/31 05:48:04;;;;;;;11.87;5.10;;;7.00;99.90;;;;;;493863;241;28449;-73
2021/03/31 05:50:05;;;;;;;8.90;4.70;;;7.10;99.90;;;;;;493928;241;28554;-73
2021/03/31 05:52:06;;;;;;;7.80;4.50;;;7.10;99.90;;;;;;493956;241;28364;-73
2021/03/31 05:54:07;;;;;;;7.67;4.60;;;7.20;99.90;;;;;;494004;241;28010;-73
2021/03/31 05:56:09;;;;;;;6.60;4.73;;;7.30;99.90;;;;;;494026;241;28114;-71
2021/03/31 05:58:10;;;;;;;9.03;3.83;;;7.40;99.90;;;;;;494016;241;28026;-71
2021/03/31 06:00:11;;;;;;;13.77;4.37;;;7.40;99.90;;;;;;494065;241;27944;-71
2021/03/31 06:02:12;;;;;;;10.57;4.07;;;7.40;99.90;;;;;;494023;241;27747;-70
2021/03/31 06:04:14;;;;;;;9.50;4.53;;;7.50;99.90;;;;;;494020;241;28195;-73
2021/03/31 06:06:15;;;;;;;12.87;4.10;;;7.60;99.90;;;;;;494015;241;27985;-73
2021/03/31 06:08:16;;;;;;;13.73;4.33;;;7.70;99.90;;;;;;494024;241;28053;-73
2021/03/31 06:10:17;;;;;;;5.67;4.43;;;7.70;99.90;;;;;;493902;241;27819;-73
2021/03/31 06:12:19;;;;;;;6.87;4.00;;;7.80;99.90;;;;;;493864;241;28091;-74
2021/03/31 06:14:20;;;;;;;13.70;4.60;;;7.80;99.90;;;;;;493864;241;28005;-73
2021/03/31 06:16:21;;;;;;;9.13;4.60;;;7.80;99.90;;;;;;493886;241;28412;-73
2021/03/31 06:18:22;;;;;;;5.90;4.20;;;7.90;99.90;;;;;;493885;241;28345;-73
2021/03/31 06:20:24;;;;;;;9.30;4.53;;;7.90;99.90;;;;;;493847;241;27978;-73
2021/03/31 06:22:48;;;;;;;6.17;4.00;;;8.00;99.90;;;;;;493866;241;29113;-73
2021/03/31 06:24:43;;;;;;;9.80;4.40;;;8.00;99.90;;;;;;492688;241;29248;-73
2021/03/31 06:26:36;;;;;;;8.60;4.47;;;7.90;99.90;;;;;;493222;241;28435;-74
2021/03/31 06:28:37;;;;;;;5.67;3.57;;;7.90;99.90;;;;;;493895;241;28494;-73
2021/03/31 06:30:39;;;;;;;8.17;4.40;;;8.00;99.90;;;;;;493923;241;28451;-73
2021/03/31 06:32:40;;;;;;;7.37;4.20;;;8.00;99.90;;;;;;493909;241;28449;-73
2021/03/31 06:34:41;;;;;;;5.30;4.10;;;8.10;99.90;;;;;;493962;241;28013;-73
2021/03/31 06:36:43;;;;;;;10.30;3.90;;;8.10;99.90;;;;;;493983;241;27788;-73
2021/03/31 06:38:48;;;;;;;7.77;4.00;;;8.20;99.90;;;;;;493778;241;27996;-73
2021/03/31 06:40:50;;;;;;;6.47;4.37;;;8.30;99.90;;;;;;493752;241;28001;-71
2021/03/31 06:42:49;;;;;;;10.50;3.77;;;8.30;99.90;;;;;;494066;241;27824;-73
2021/03/31 06:46:57;;;;;;;10.30;4.30;;;8.50;99.90;;;;;;493876;241;28137;-73
2021/03/31 06:48:53;;;;;;;8.57;4.90;;;8.50;99.90;;;;;;493449;241;28029;-72
2021/03/31 06:50:54;;;;;;;5.90;3.70;;;8.60;99.90;;;;;;493818;241;28206;-73
2021/03/31 06:52:56;;;;;;;10.77;4.63;;;8.60;99.90;;;;;;493848;241;27972;-72
2021/03/31 06:54:59;;;;;;;8.80;4.40;;;8.70;99.90;;;;;;493875;241;27657;-72
2021/03/31 06:56:58;;;;;;;8.90;4.27;;;8.80;99.90;;;;;;493694;241;28026;-73
2021/03/31 06:59:02;;;;;;;13.00;4.43;;;9.00;99.90;;;;;;493799;241;28207;-72
2021/03/31 07:01:04;;;;;;;7.30;3.97;;;9.20;99.90;;;;;;493843;241;27732;-72
2021/03/31 07:03:05;;;;;;;4.77;4.27;;;9.30;99.90;;;;;;493853;241;27981;-73
2021/03/31 07:05:06;;;;;;;8.03;4.27;;;9.30;99.90;;;;;;493869;241;28037;-73
2021/03/31 07:07:11;;;;;;;5.10;3.73;;;9.40;99.90;;;;;;493882;241;27959;-73
2021/03/31 07:09:11;;;;;;;6.23;3.87;;;9.50;99.90;;;;;;493955;241;28068;-73
2021/03/31 07:11:13;;;;;;;9.50;4.37;;;9.60;99.90;;;;;;493967;241;27857;-73
2021/03/31 07:13:14;;;;;;;8.60;4.93;;;9.60;99.90;;;;;;493950;241;27986;-72
2021/03/31 07:15:15;;;;;;;5.70;4.30;;;9.70;99.90;;;;;;493902;241;27955;-73
2021/03/31 07:17:26;;;;;;;8.20;4.07;;;9.70;99.90;;;;;;493899;241;28033;-73
2021/03/31 07:19:24;;;;;;;6.50;3.63;;;9.90;99.90;;;;;;493700;241;28343;-73
2021/03/31 07:21:25;;;;;;;9.23;4.47;;;10.00;99.90;;;;;;493994;241;28223;-73
2021/03/31 07:23:26;;;;;;;4.43;3.50;;;10.10;99.90;;;;;;493952;241;28004;-73
2021/03/31 07:25:27;;;;;;;5.60;4.03;;;10.30;99.90;;;;;;493846;241;27998;-73
2021/03/31 07:27:29;;;;;;;6.60;3.70;;;10.30;99.90;;;;;;493857;241;27945;-73
2021/03/31 07:29:30;;;;;;;9.53;4.27;;;10.30;99.90;;;;;;493763;241;27863;-73
2021/03/31 07:31:31;;;;;;;6.07;3.80;;;10.30;99.90;;;;;;493854;241;27956;-73
2021/03/31 07:33:32;;;;;;;5.37;3.77;;;10.50;99.90;;;;;;493827;241;28010;-73
2021/03/31 07:35:34;;;;;;;6.10;3.80;;;10.70;99.90;;;;;;493820;241;27983;-74
2021/03/31 07:37:35;;;;;;;7.17;4.00;;;10.80;99.90;;;;;;493851;241;28135;-73
2021/03/31 07:39:36;;;;;;;7.90;3.67;;;10.90;99.90;;;;;;493876;241;28334;-73
2021/03/31 07:41:38;;;;;;;12.90;5.33;;;11.20;99.90;;;;;;493828;241;28659;-73
2021/03/31 07:43:39;;;;;;;6.73;3.97;;;11.40;99.90;;;;;;493830;241;28463;-73
2021/03/31 07:45:40;;;;;;;5.37;3.80;;;11.50;99.90;;;;;;493831;241;28775;-73
2021/03/31 07:47:41;;;;;;;22.43;4.47;;;11.70;99.90;;;;;;493900;241;28227;-73
2021/03/31 07:49:42;;;;;;;4.70;3.80;;;11.80;99.90;;;;;;493864;241;28341;-73
2021/03/31 07:51:44;;;;;;;7.90;3.60;;;11.90;99.90;;;;;;493863;241;29015;-73
2021/03/31 07:53:45;;;;;;;8.33;3.40;;;11.90;99.90;;;;;;493856;241;28224;-73
2021/03/31 07:55:46;;;;;;;8.67;4.10;;;11.90;99.90;;;;;;493867;241;28448;-73
2021/03/31 07:57:47;;;;;;;6.70;4.17;;;12.00;99.90;;;;;;493847;241;28179;-73
2021/03/31 07:59:49;;;;;;;7.77;4.43;;;12.20;99.90;;;;;;493822;237;28301;-73
2021/03/31 08:01:50;;;;;;;7.60;4.27;;;12.40;99.90;;;;;;493836;241;28430;-73
2021/03/31 08:03:51;;;;;;;7.40;4.30;;;12.60;99.90;;;;;;493823;241;29100;-73
2021/03/31 08:05:52;;;;;;;7.70;4.80;;;12.80;99.90;;;;;;493873;241;28980;-73
2021/03/31 08:07:54;;;;;;;7.40;4.20;;;12.90;99.90;;;;;;493935;241;28597;-73
2021/03/31 08:09:55;;;;;;;8.50;4.03;;;13.10;99.80;;;;;;493956;241;28945;-73
2021/03/31 08:11:56;;;;;;;5.60;4.43;;;13.30;98.80;;;;;;493920;241;28209;-73
2021/03/31 08:13:57;;;;;;;8.13;4.63;;;13.30;98.90;;;;;;493887;241;28774;-74
2021/03/31 08:15:59;;;;;;;8.10;4.60;;;13.40;98.50;;;;;;493879;241;28407;-73
2021/03/31 08:18:00;;;;;;;9.27;5.40;;;13.50;99.30;;;;;;493772;241;28942;-73
2021/03/31 08:20:01;;;;;;;8.30;4.40;;;13.60;99.80;;;;;;493861;238;28952;-73
2021/03/31 08:22:02;;;;;;;8.03;4.50;;;13.70;98.90;;;;;;493851;241;28286;-73
2021/03/31 08:24:05;;;;;;;8.47;4.90;;;13.90;99.10;;;;;;493887;237;28195;-74
2021/03/31 08:26:05;;;;;;;9.30;5.07;;;13.90;97.70;;;;;;493854;241;28195;-73
2021/03/31 08:28:07;;;;;;;9.33;5.40;;;13.90;96.30;;;;;;493877;241;28789;-73
2021/03/31 08:30:07;;;;;;;6.67;5.03;;;14.00;96.20;;;;;;493849;241;28867;-73
2021/03/31 08:32:09;;;;;;;11.40;6.50;;;14.00;95.80;;;;;;493851;241;28905;-73
2021/03/31 08:34:10;;;;;;;13.17;5.60;;;14.20;95.20;;;;;;493736;241;28195;-74
2021/03/31 08:36:11;;;;;;;12.43;4.80;;;14.30;94.80;;;;;;493907;241;28394;-74
2021/03/31 08:38:12;;;;;;;7.67;4.97;;;14.30;95.30;;;;;;494030;241;28430;-74
2021/03/31 08:40:14;;;;;;;10.33;5.57;;;14.40;94.00;;;;;;494013;241;28360;-73
2021/03/31 08:42:15;;;;;;;10.07;5.50;;;14.60;93.20;;;;;;494016;241;28440;-73
2021/03/31 08:44:20;;;;;;;7.40;5.07;;;14.60;92.60;;;;;;493990;241;28419;-73
2021/03/31 08:46:17;;;;;;;11.10;5.30;;;14.70;92.40;;;;;;493660;241;28970;-73
2021/03/31 08:48:19;;;;;;;9.77;5.50;;;14.90;94.70;;;;;;494018;237;29087;-73
2021/03/31 08:50:20;;;;;;;9.83;4.90;;;15.10;93.80;;;;;;493945;241;29074;-73
2021/03/31 08:52:21;;;;;;;7.13;4.90;;;15.10;91.60;;;;;;493905;241;28819;-74
2021/03/31 08:54:23;;;;;;;11.20;5.00;;;15.10;91.30;;;;;;493919;241;28849;-74
2021/03/31 08:56:24;;;;;;;12.90;5.33;;;15.20;91.60;;;;;;493908;241;28807;-74
2021/03/31 08:58:25;;;;;;;6.33;4.73;;;15.40;91.60;;;;;;493890;241;28853;-74
2021/03/31 09:00:26;;;;;;;6.40;4.83;;;15.40;90.80;;;;;;493842;241;28982;-74
2021/03/31 09:02:28;;;;;;;7.50;4.73;;;15.50;91.10;;;;;;493886;241;28852;-74
2021/03/31 09:04:30;;;;;;;7.90;5.13;;;15.40;91.20;;;;;;493876;241;28861;-74
2021/03/31 09:06:30;;;;;;;7.03;4.87;;;15.50;90.80;;;;;;493825;241;28804;-74
2021/03/31 09:08:31;;;;;;;9.03;4.63;;;15.70;91.10;;;;;;493839;241;29392;-74
2021/03/31 09:10:33;;;;;;;7.10;4.47;;;15.60;91.80;;;;;;493851;241;29314;-74
2021/03/31 09:12:34;;;;;;;8.27;4.90;;;15.90;91.00;;;;;;493843;241;28824;-73
2021/03/31 09:14:35;;;;;;;6.40;4.40;;;16.10;89.60;;;;;;493885;241;29428;-74
2021/03/31 09:16:36;;;;;;;8.77;4.70;;;16.20;90.10;;;;;;493885;241;28857;-74
2021/03/31 09:18:38;;;;;;;8.27;5.03;;;16.20;89.40;;;;;;493861;241;29332;-74
2021/03/31 09:20:39;;;;;;;6.97;3.80;;;16.30;87.20;;;;;;493850;241;28847;-74
2021/03/31 09:22:40;;;;;;;6.33;3.90;;;16.40;86.30;;;;;;493843;241;28841;-74
2021/03/31 09:24:41;;;;;;;4.53;3.70;;;16.40;84.50;;;;;;493856;241;28876;-74
2021/03/31 09:26:43;;;;;;;6.47;3.77;;;16.40;85.00;;;;;;493890;241;28947;-74
2021/03/31 09:28:44;;;;;;;6.50;4.27;;;16.60;85.30;;;;;;493866;241;28847;-73
2021/03/31 09:30:46;;;;;;;9.40;3.80;;;16.60;82.30;;;;;;493877;241;28853;-74
2021/03/31 09:32:52;;;;;;;5.50;3.77;;;16.60;82.90;;;;;;493823;241;30262;-74
2021/03/31 09:34:50;;;;;;;5.67;3.90;;;16.50;81.80;;;;;;493572;241;28921;-74
2021/03/31 09:36:51;;;;;;;4.53;3.37;;;16.70;81.90;;;;;;493921;241;28804;-73
2021/03/31 09:38:53;;;;;;;7.23;4.03;;;16.70;84.30;;;;;;494017;241;28838;-74
2021/03/31 09:40:54;;;;;;;8.87;3.97;;;16.90;76.60;;;;;;493958;241;29214;-74
2021/03/31 09:42:55;;;;;;;5.87;3.30;;;16.90;78.40;;;;;;493887;241;28859;-74
2021/03/31 09:44:56;;;;;;;8.23;3.47;;;17.00;78.80;;;;;;493869;241;28860;-73
2021/03/31 09:46:58;;;;;;;9.60;3.90;;;17.20;78.60;;;;;;488052;241;28905;-74
2021/03/31 09:48:59;;;;;;;7.80;4.60;;;17.20;76.40;;;;;;487392;244;29328;-74
2021/03/31 09:51:00;;;;;;;7.47;3.97;;;17.40;75.00;;;;;;487372;244;29358;-75
2021/03/31 09:53:01;;;;;;;12.20;4.97;;;17.50;74.80;;;;;;487332;244;29371;-74
2021/03/31 09:55:03;;;;;;;8.13;4.30;;;17.40;74.00;;;;;;487388;244;28955;-74
2021/03/31 09:57:04;;;;;;;9.40;4.60;;;17.30;70.80;;;;;;487382;244;28806;-73
2021/03/31 09:59:05;;;;;;;6.30;4.10;;;17.30;73.30;;;;;;487386;244;28903;-74
2021/03/31 10:01:07;;;;;;;6.87;4.07;;;17.50;74.90;;;;;;487362;244;28843;-74
2021/03/31 10:03:09;;;;;;;12.70;4.73;;;17.30;71.60;;;;;;487391;244;28837;-74
2021/03/31 10:05:11;;;;;;;8.23;4.17;;;17.30;72.30;;;;;;487343;244;28941;-74
2021/03/31 10:07:12;;;;;;;6.50;3.97;;;17.20;72.40;;;;;;487283;243;28806;-74
2021/03/31 10:09:12;;;;;;;12.13;4.60;;;17.40;72.60;;;;;;487341;243;28820;-74
2021/03/31 10:11:13;;;;;;;6.70;4.23;;;17.40;73.20;;;;;;487442;244;30393;-74
2021/03/31 10:13:14;;;;;;;7.93;4.13;;;17.40;72.10;;;;;;487517;244;29259;-73
2021/03/31 10:15:15;;;;;;;10.80;4.30;;;17.50;72.30;;;;;;487548;244;29332;-74
2021/03/31 10:17:17;;;;;;;9.23;4.70;;;17.80;76.60;;;;;;487509;243;28807;-74
2021/03/31 10:19:18;;;;;;;8.57;4.50;;;18.00;73.40;;;;;;487475;244;29326;-74
2021/03/31 10:21:19;;;;;;;6.60;4.03;;;18.20;73.80;;;;;;487302;244;29274;-74
2021/03/31 10:23:20;;;;;;;10.63;4.57;;;18.10;73.50;;;;;;487412;244;28894;-74
2021/03/31 10:25:22;;;;;;;8.97;4.70;;;18.10;71.90;;;;;;487365;244;28848;-74
2021/03/31 10:27:23;;;;;;;6.80;4.20;;;18.20;72.30;;;;;;487321;244;28906;-73
2021/03/31 10:29:24;;;;;;;6.40;3.70;;;18.30;72.40;;;;;;487191;244;28851;-74
2021/03/31 10:31:25;;;;;;;7.53;4.20;;;18.30;71.40;;;;;;487294;244;28843;-73
2021/03/31 10:33:27;;;;;;;5.20;3.37;;;18.60;71.40;;;;;;487332;244;29317;-74
2021/03/31 10:35:28;;;;;;;6.30;3.63;;;18.40;71.70;;;;;;487293;244;29414;-74
2021/03/31 10:37:35;;;;;;;5.93;4.03;;;18.30;73.90;;;;;;487216;244;29287;-74